sensor_id;sensor_type;location;lat;lon;timestamp;temperature;humidity
17437;DHT22;73152;52.198;5.422;2024-03-02T00:00:56;20.00;50.20
17437;DHT22;73152;52.198;5.422;2024-03-02T00:03:27;20.00;50.00
17437;DHT22;73152;52.198;5.422;2024-03-02T00:05:56;20.00;49.80
17437;DHT22;73152;52.198;5.422;2024-03-02T00:08:25;20.00;50.10
17437;DHT22;73152;52.198;5.422;2024-03-02T00:10:58;20.00;50.00
17437;DHT22;73152;52.198;5.422;2024-03-02T00:13:29;20.00;49.90
17437;DHT22;73152;52.198;5.422;2024-03-02T00:15:59;20.10;49.70
17437;DHT22;73152;52.198;5.422;2024-03-02T00:18:34;20.00;50.00
17437;DHT22;73152;52.198;5.422;2024-03-02T00:21:06;20.00;49.30
17437;DHT22;73152;52.198;5.422;2024-03-02T00:23:38;20.00;49.80
17437;DHT22;73152;52.198;5.422;2024-03-02T00:26:11;20.00;50.00
17437;DHT22;73152;52.198;5.422;2024-03-02T00:28:40;20.00;49.90
17437;DHT22;73152;52.198;5.422;2024-03-02T00:31:12;20.00;49.80
17437;DHT22;73152;52.198;5.422;2024-03-02T00:33:45;20.10;49.50
17437;DHT22;73152;52.198;5.422;2024-03-02T00:36:15;20.10;49.60
17437;DHT22;73152;52.198;5.422;2024-03-02T00:38:52;20.00;49.70
17437;DHT22;73152;52.198;5.422;2024-03-02T00:41:23;20.00;49.60
17437;DHT22;73152;52.198;5.422;2024-03-02T00:44:03;20.10;49.50
17437;DHT22;73152;52.198;5.422;2024-03-02T00:46:34;20.10;49.40
17437;DHT22;73152;52.198;5.422;2024-03-02T00:49:14;20.20;47.60
17437;DHT22;73152;52.198;5.422;2024-03-02T00:51:49;20.10;48.20
17437;DHT22;73152;52.198;5.422;2024-03-02T00:54:20;20.10;48.80
17437;DHT22;73152;52.198;5.422;2024-03-02T00:56:49;20.10;48.20
17437;DHT22;73152;52.198;5.422;2024-03-02T00:59:20;20.10;48.70
17437;DHT22;73152;52.198;5.422;2024-03-02T01:01:49;20.00;49.40
17437;DHT22;73152;52.198;5.422;2024-03-02T01:04:21;20.10;49.40
17437;DHT22;73152;52.198;5.422;2024-03-02T01:06:50;20.10;48.90
17437;DHT22;73152;52.198;5.422;2024-03-02T01:09:19;20.00;49.40
17437;DHT22;73152;52.198;5.422;2024-03-02T01:11:48;20.00;49.70
17437;DHT22;73152;52.198;5.422;2024-03-02T01:14:17;20.00;49.50
17437;DHT22;73152;52.198;5.422;2024-03-02T01:16:46;20.00;49.60
17437;DHT22;73152;52.198;5.422;2024-03-02T01:19:14;20.10;49.70
17437;DHT22;73152;52.198;5.422;2024-03-02T01:21:46;20.10;49.40
17437;DHT22;73152;52.198;5.422;2024-03-02T01:24:16;20.10;49.30
17437;DHT22;73152;52.198;5.422;2024-03-02T01:26:45;20.00;49.80
17437;DHT22;73152;52.198;5.422;2024-03-02T01:29:13;20.00;49.80
17437;DHT22;73152;52.198;5.422;2024-03-02T01:31:42;20.00;49.80
17437;DHT22;73152;52.198;5.422;2024-03-02T01:34:12;20.00;49.80
17437;DHT22;73152;52.198;5.422;2024-03-02T01:36:41;20.00;50.00
17437;DHT22;73152;52.198;5.422;2024-03-02T01:39:12;20.00;50.10
17437;DHT22;73152;52.198;5.422;2024-03-02T01:41:41;20.00;50.10
17437;DHT22;73152;52.198;5.422;2024-03-02T01:44:10;20.00;50.00
17437;DHT22;73152;52.198;5.422;2024-03-02T01:46:39;20.00;50.10
17437;DHT22;73152;52.198;5.422;2024-03-02T01:49:08;20.00;50.10
17437;DHT22;73152;52.198;5.422;2024-03-02T01:51:37;20.00;49.90
17437;DHT22;73152;52.198;5.422;2024-03-02T01:54:06;20.00;50.00
17437;DHT22;73152;52.198;5.422;2024-03-02T01:56:37;20.00;50.10
17437;DHT22;73152;52.198;5.422;2024-03-02T01:59:06;20.00;50.10
17437;DHT22;73152;52.198;5.422;2024-03-02T02:01:35;20.00;50.20
17437;DHT22;73152;52.198;5.422;2024-03-02T02:04:04;20.00;50.10
17437;DHT22;73152;52.198;5.422;2024-03-02T02:06:33;20.00;50.00
17437;DHT22;73152;52.198;5.422;2024-03-02T02:09:02;20.00;49.90
17437;DHT22;73152;52.198;5.422;2024-03-02T02:11:31;20.00;50.00
17437;DHT22;73152;52.198;5.422;2024-03-02T02:14:03;20.00;49.80
17437;DHT22;73152;52.198;5.422;2024-03-02T02:16:31;20.00;49.90
17437;DHT22;73152;52.198;5.422;2024-03-02T02:19:00;20.00;49.80
17437;DHT22;73152;52.198;5.422;2024-03-02T02:21:32;20.00;50.00
17437;DHT22;73152;52.198;5.422;2024-03-02T02:24:01;20.00;50.00
17437;DHT22;73152;52.198;5.422;2024-03-02T02:26:30;20.00;49.60
17437;DHT22;73152;52.198;5.422;2024-03-02T02:28:59;20.00;49.70
17437;DHT22;73152;52.198;5.422;2024-03-02T02:31:36;20.00;49.50
17437;DHT22;73152;52.198;5.422;2024-03-02T02:34:06;20.00;49.90
17437;DHT22;73152;52.198;5.422;2024-03-02T02:36:38;20.00;50.10
17437;DHT22;73152;52.198;5.422;2024-03-02T02:39:10;20.00;50.20
17437;DHT22;73152;52.198;5.422;2024-03-02T02:41:42;20.00;50.10
17437;DHT22;73152;52.198;5.422;2024-03-02T02:44:11;20.00;50.10
17437;DHT22;73152;52.198;5.422;2024-03-02T02:46:41;20.00;50.20
17437;DHT22;73152;52.198;5.422;2024-03-02T02:49:10;20.00;50.10
17437;DHT22;73152;52.198;5.422;2024-03-02T02:51:41;20.00;50.10
17437;DHT22;73152;52.198;5.422;2024-03-02T02:54:10;20.00;50.30
17437;DHT22;73152;52.198;5.422;2024-03-02T02:56:39;20.00;50.30
17437;DHT22;73152;52.198;5.422;2024-03-02T02:59:07;20.00;50.30
17437;DHT22;73152;52.198;5.422;2024-03-02T03:01:36;20.00;50.40
17437;DHT22;73152;52.198;5.422;2024-03-02T03:04:05;20.00;50.30
17437;DHT22;73152;52.198;5.422;2024-03-02T03:06:34;20.00;50.30
17437;DHT22;73152;52.198;5.422;2024-03-02T03:09:05;20.00;50.10
17437;DHT22;73152;52.198;5.422;2024-03-02T03:11:36;20.00;50.20
17437;DHT22;73152;52.198;5.422;2024-03-02T03:14:05;20.00;49.80
17437;DHT22;73152;52.198;5.422;2024-03-02T03:16:34;20.00;50.00
17437;DHT22;73152;52.198;5.422;2024-03-02T03:19:03;20.00;50.30
17437;DHT22;73152;52.198;5.422;2024-03-02T03:21:32;20.00;50.40
17437;DHT22;73152;52.198;5.422;2024-03-02T03:24:01;19.90;50.40
17437;DHT22;73152;52.198;5.422;2024-03-02T03:26:32;20.00;50.50
17437;DHT22;73152;52.198;5.422;2024-03-02T03:29:04;19.90;50.40
17437;DHT22;73152;52.198;5.422;2024-03-02T03:31:32;20.00;50.30
17437;DHT22;73152;52.198;5.422;2024-03-02T03:34:01;20.00;50.40
17437;DHT22;73152;52.198;5.422;2024-03-02T03:36:30;20.00;50.50
17437;DHT22;73152;52.198;5.422;2024-03-02T03:38:59;19.90;50.50
17437;DHT22;73152;52.198;5.422;2024-03-02T03:41:29;20.00;50.30
17437;DHT22;73152;52.198;5.422;2024-03-02T03:44:00;19.90;50.40
17437;DHT22;73152;52.198;5.422;2024-03-02T03:46:29;19.90;50.50
17437;DHT22;73152;52.198;5.422;2024-03-02T03:48:58;19.90;50.50
17437;DHT22;73152;52.198;5.422;2024-03-02T03:51:27;19.90;50.50
17437;DHT22;73152;52.198;5.422;2024-03-02T03:53:56;19.90;50.60
17437;DHT22;73152;52.198;5.422;2024-03-02T03:56:25;19.90;50.60
17437;DHT22;73152;52.198;5.422;2024-03-02T03:58:56;19.90;50.60
17437;DHT22;73152;52.198;5.422;2024-03-02T04:01:25;19.90;50.60
17437;DHT22;73152;52.198;5.422;2024-03-02T04:03:54;19.90;50.60
17437;DHT22;73152;52.198;5.422;2024-03-02T04:06:23;19.90;50.60
17437;DHT22;73152;52.198;5.422;2024-03-02T04:08:52;19.90;50.60
17437;DHT22;73152;52.198;5.422;2024-03-02T04:11:20;19.90;50.60
17437;DHT22;73152;52.198;5.422;2024-03-02T04:13:49;19.90;50.70
17437;DHT22;73152;52.198;5.422;2024-03-02T04:16:21;19.90;50.60
17437;DHT22;73152;52.198;5.422;2024-03-02T04:18:49;19.90;50.70
17437;DHT22;73152;52.198;5.422;2024-03-02T04:21:18;20.00;50.50
17437;DHT22;73152;52.198;5.422;2024-03-02T04:23:47;19.90;50.60
17437;DHT22;73152;52.198;5.422;2024-03-02T04:26:16;19.90;50.70
17437;DHT22;73152;52.198;5.422;2024-03-02T04:28:47;19.90;50.50
17437;DHT22;73152;52.198;5.422;2024-03-02T04:31:16;19.90;50.60
17437;DHT22;73152;52.198;5.422;2024-03-02T04:33:48;19.90;50.60
17437;DHT22;73152;52.198;5.422;2024-03-02T04:36:16;19.90;50.60
17437;DHT22;73152;52.198;5.422;2024-03-02T04:38:45;19.90;50.60
17437;DHT22;73152;52.198;5.422;2024-03-02T04:41:14;19.90;50.60
17437;DHT22;73152;52.198;5.422;2024-03-02T04:43:43;19.90;50.60
17437;DHT22;73152;52.198;5.422;2024-03-02T04:46:12;19.90;50.60
17437;DHT22;73152;52.198;5.422;2024-03-02T04:48:41;19.90;50.70
17437;DHT22;73152;52.198;5.422;2024-03-02T04:51:12;19.90;50.70
17437;DHT22;73152;52.198;5.422;2024-03-02T04:53:41;19.90;50.70
17437;DHT22;73152;52.198;5.422;2024-03-02T04:56:10;19.90;50.70
17437;DHT22;73152;52.198;5.422;2024-03-02T04:59:04;19.90;50.70
17437;DHT22;73152;52.198;5.422;2024-03-02T05:01:33;19.90;50.70
17437;DHT22;73152;52.198;5.422;2024-03-02T05:04:02;19.90;50.70
17437;DHT22;73152;52.198;5.422;2024-03-02T05:06:34;19.90;50.70
17437;DHT22;73152;52.198;5.422;2024-03-02T05:09:03;19.90;50.60
17437;DHT22;73152;52.198;5.422;2024-03-02T05:11:31;19.90;50.60
17437;DHT22;73152;52.198;5.422;2024-03-02T05:14:19;20.00;50.60
17437;DHT22;73152;52.198;5.422;2024-03-02T05:16:45;19.90;50.70
17437;DHT22;73152;52.198;5.422;2024-03-02T05:19:14;19.90;50.70
17437;DHT22;73152;52.198;5.422;2024-03-02T05:21:45;19.90;50.50
17437;DHT22;73152;52.198;5.422;2024-03-02T05:24:15;19.90;50.50
17437;DHT22;73152;52.198;5.422;2024-03-02T05:26:44;19.90;50.60
17437;DHT22;73152;52.198;5.422;2024-03-02T05:29:13;19.90;50.60
17437;DHT22;73152;52.198;5.422;2024-03-02T05:31:42;19.90;50.20
17437;DHT22;73152;52.198;5.422;2024-03-02T05:34:11;19.90;50.50
17437;DHT22;73152;52.198;5.422;2024-03-02T05:36:39;19.90;50.50
17437;DHT22;73152;52.198;5.422;2024-03-02T05:39:11;19.90;50.60
17437;DHT22;73152;52.198;5.422;2024-03-02T05:41:40;19.90;50.30
17437;DHT22;73152;52.198;5.422;2024-03-02T05:44:09;19.90;50.50
17437;DHT22;73152;52.198;5.422;2024-03-02T05:46:38;20.00;50.50
17437;DHT22;73152;52.198;5.422;2024-03-02T05:49:06;19.90;50.60
17437;DHT22;73152;52.198;5.422;2024-03-02T05:51:36;19.90;50.60
17437;DHT22;73152;52.198;5.422;2024-03-02T05:54:05;19.90;50.30
17437;DHT22;73152;52.198;5.422;2024-03-02T05:56:36;19.90;50.60
17437;DHT22;73152;52.198;5.422;2024-03-02T05:59:05;19.90;50.50
17437;DHT22;73152;52.198;5.422;2024-03-02T06:01:38;19.90;50.20
17437;DHT22;73152;52.198;5.422;2024-03-02T06:04:07;19.90;50.30
17437;DHT22;73152;52.198;5.422;2024-03-02T06:06:36;19.90;50.20
17437;DHT22;73152;52.198;5.422;2024-03-02T06:09:06;19.90;50.50
17437;DHT22;73152;52.198;5.422;2024-03-02T06:11:41;19.90;50.30
17437;DHT22;73152;52.198;5.422;2024-03-02T06:14:09;19.90;50.40
17437;DHT22;73152;52.198;5.422;2024-03-02T06:16:38;19.90;50.40
17437;DHT22;73152;52.198;5.422;2024-03-02T06:19:07;19.90;50.50
17437;DHT22;73152;52.198;5.422;2024-03-02T06:21:36;19.90;50.60
17437;DHT22;73152;52.198;5.422;2024-03-02T06:24:06;19.90;50.80
17437;DHT22;73152;52.198;5.422;2024-03-02T06:26:35;19.90;51.10
17437;DHT22;73152;52.198;5.422;2024-03-02T06:29:07;20.00;51.40
17437;DHT22;73152;52.198;5.422;2024-03-02T06:31:36;20.00;51.60
17437;DHT22;73152;52.198;5.422;2024-03-02T06:34:05;20.00;51.70
17437;DHT22;73152;52.198;5.422;2024-03-02T06:36:34;20.00;51.80
17437;DHT22;73152;52.198;5.422;2024-03-02T06:39:03;20.00;51.80
17437;DHT22;73152;52.198;5.422;2024-03-02T06:41:32;20.10;52.00
17437;DHT22;73152;52.198;5.422;2024-03-02T06:44:00;20.10;52.00
17437;DHT22;73152;52.198;5.422;2024-03-02T06:46:32;20.10;52.10
17437;DHT22;73152;52.198;5.422;2024-03-02T06:49:01;20.10;52.10
17437;DHT22;73152;52.198;5.422;2024-03-02T06:51:30;20.10;52.10
17437;DHT22;73152;52.198;5.422;2024-03-02T06:53:59;20.10;52.10
17437;DHT22;73152;52.198;5.422;2024-03-02T06:56:27;20.20;52.10
17437;DHT22;73152;52.198;5.422;2024-03-02T06:58:58;20.20;52.10
17437;DHT22;73152;52.198;5.422;2024-03-02T07:01:27;20.20;52.10
17437;DHT22;73152;52.198;5.422;2024-03-02T07:03:58;20.20;52.10
17437;DHT22;73152;52.198;5.422;2024-03-02T07:06:27;20.30;52.20
17437;DHT22;73152;52.198;5.422;2024-03-02T07:08:56;20.30;52.10
17437;DHT22;73152;52.198;5.422;2024-03-02T07:11:25;20.30;52.40
17437;DHT22;73152;52.198;5.422;2024-03-02T07:13:54;20.30;52.50
17437;DHT22;73152;52.198;5.422;2024-03-02T07:16:23;20.30;52.50
17437;DHT22;73152;52.198;5.422;2024-03-02T07:19:01;20.30;51.90
17437;DHT22;73152;52.198;5.422;2024-03-02T07:21:30;20.20;52.10
17437;DHT22;73152;52.198;5.422;2024-03-02T07:23:59;20.30;52.10
17437;DHT22;73152;52.198;5.422;2024-03-02T07:26:28;20.30;52.10
17437;DHT22;73152;52.198;5.422;2024-03-02T07:28:58;20.30;52.00
17437;DHT22;73152;52.198;5.422;2024-03-02T07:31:27;20.30;52.00
17437;DHT22;73152;52.198;5.422;2024-03-02T07:33:56;20.40;51.20
17437;DHT22;73152;52.198;5.422;2024-03-02T07:36:27;20.40;51.40
17437;DHT22;73152;52.198;5.422;2024-03-02T07:38:56;20.40;51.50
17437;DHT22;73152;52.198;5.422;2024-03-02T07:41:25;20.40;51.40
17437;DHT22;73152;52.198;5.422;2024-03-02T07:43:54;20.50;50.10
17437;DHT22;73152;52.198;5.422;2024-03-02T07:46:23;20.40;50.80
17437;DHT22;73152;52.198;5.422;2024-03-02T07:48:52;20.40;50.50
17437;DHT22;73152;52.198;5.422;2024-03-02T07:51:21;20.40;50.50
17437;DHT22;73152;52.198;5.422;2024-03-02T07:53:53;20.50;50.30
17437;DHT22;73152;52.198;5.422;2024-03-02T07:56:21;20.40;50.60
17437;DHT22;73152;52.198;5.422;2024-03-02T07:58:53;20.40;50.40
17437;DHT22;73152;52.198;5.422;2024-03-02T08:01:26;20.50;50.00
17437;DHT22;73152;52.198;5.422;2024-03-02T08:03:55;20.40;50.30
17437;DHT22;73152;52.198;5.422;2024-03-02T08:06:25;20.40;50.30
17437;DHT22;73152;52.198;5.422;2024-03-02T08:08:59;20.50;50.20
17437;DHT22;73152;52.198;5.422;2024-03-02T08:11:30;20.40;50.20
17437;DHT22;73152;52.198;5.422;2024-03-02T08:13:59;20.40;50.40
17437;DHT22;73152;52.198;5.422;2024-03-02T08:16:28;20.40;50.50
17437;DHT22;73152;52.198;5.422;2024-03-02T08:18:57;20.40;50.60
17437;DHT22;73152;52.198;5.422;2024-03-02T08:21:26;20.40;50.40
17437;DHT22;73152;52.198;5.422;2024-03-02T08:23:58;20.50;50.40
17437;DHT22;73152;52.198;5.422;2024-03-02T08:26:27;20.50;49.10
17437;DHT22;73152;52.198;5.422;2024-03-02T08:28:57;20.50;49.30
17437;DHT22;73152;52.198;5.422;2024-03-02T08:31:27;20.50;49.30
17437;DHT22;73152;52.198;5.422;2024-03-02T08:33:56;20.50;49.40
17437;DHT22;73152;52.198;5.422;2024-03-02T08:36:26;20.50;49.10
17437;DHT22;73152;52.198;5.422;2024-03-02T08:38:57;20.50;49.60
17437;DHT22;73152;52.198;5.422;2024-03-02T08:41:26;20.50;49.50
17437;DHT22;73152;52.198;5.422;2024-03-02T08:43:55;20.50;49.50
17437;DHT22;73152;52.198;5.422;2024-03-02T08:46:24;20.50;48.30
17437;DHT22;73152;52.198;5.422;2024-03-02T08:48:53;20.50;49.20
17437;DHT22;73152;52.198;5.422;2024-03-02T08:51:22;20.50;49.00
17437;DHT22;73152;52.198;5.422;2024-03-02T08:53:51;20.50;49.10
17437;DHT22;73152;52.198;5.422;2024-03-02T08:56:22;20.50;48.90
17437;DHT22;73152;52.198;5.422;2024-03-02T08:58:52;20.60;48.00
17437;DHT22;73152;52.198;5.422;2024-03-02T09:01:21;20.70;46.80
17437;DHT22;73152;52.198;5.422;2024-03-02T09:03:50;20.60;48.00
17437;DHT22;73152;52.198;5.422;2024-03-02T09:06:18;20.50;48.70
17437;DHT22;73152;52.198;5.422;2024-03-02T09:08:47;20.60;48.60
17437;DHT22;73152;52.198;5.422;2024-03-02T09:11:17;20.60;48.10
17437;DHT22;73152;52.198;5.422;2024-03-02T09:13:49;20.60;47.60
17437;DHT22;73152;52.198;5.422;2024-03-02T09:16:18;20.60;48.10
17437;DHT22;73152;52.198;5.422;2024-03-02T09:18:47;20.60;47.90
17437;DHT22;73152;52.198;5.422;2024-03-02T09:21:16;20.60;47.80
17437;DHT22;73152;52.198;5.422;2024-03-02T09:23:45;20.70;47.50
17437;DHT22;73152;52.198;5.422;2024-03-02T09:26:14;20.70;47.50
17437;DHT22;73152;52.198;5.422;2024-03-02T09:28:43;20.60;47.80
17437;DHT22;73152;52.198;5.422;2024-03-02T09:31:15;20.60;47.60
17437;DHT22;73152;52.198;5.422;2024-03-02T09:33:44;20.70;47.10
17437;DHT22;73152;52.198;5.422;2024-03-02T09:36:20;20.60;47.70
17437;DHT22;73152;52.198;5.422;2024-03-02T09:38:50;20.60;47.50
17437;DHT22;73152;52.198;5.422;2024-03-02T09:41:19;20.70;47.50
17437;DHT22;73152;52.198;5.422;2024-03-02T09:43:49;20.80;46.00
17437;DHT22;73152;52.198;5.422;2024-03-02T09:46:20;20.70;47.10
17437;DHT22;73152;52.198;5.422;2024-03-02T09:48:51;20.70;46.80
17437;DHT22;73152;52.198;5.422;2024-03-02T09:51:20;20.60;47.50
17437;DHT22;73152;52.198;5.422;2024-03-02T09:53:50;20.70;47.80
17437;DHT22;73152;52.198;5.422;2024-03-02T09:56:19;20.70;47.70
17437;DHT22;73152;52.198;5.422;2024-03-02T09:58:49;20.70;47.70
17437;DHT22;73152;52.198;5.422;2024-03-02T10:01:21;20.70;46.80
17437;DHT22;73152;52.198;5.422;2024-03-02T10:03:50;20.70;47.20
17437;DHT22;73152;52.198;5.422;2024-03-02T10:06:22;20.70;47.40
17437;DHT22;73152;52.198;5.422;2024-03-02T10:08:52;20.80;46.50
17437;DHT22;73152;52.198;5.422;2024-03-02T10:11:29;20.80;46.00
17437;DHT22;73152;52.198;5.422;2024-03-02T10:14:05;20.90;44.50
17437;DHT22;73152;52.198;5.422;2024-03-02T10:16:40;20.90;45.50
17437;DHT22;73152;52.198;5.422;2024-03-02T10:19:17;20.70;46.80
17437;DHT22;73152;52.198;5.422;2024-03-02T10:21:47;20.70;46.70
17437;DHT22;73152;52.198;5.422;2024-03-02T10:24:17;20.70;47.20
17437;DHT22;73152;52.198;5.422;2024-03-02T10:26:46;20.60;47.50
17437;DHT22;73152;52.198;5.422;2024-03-02T10:29:16;20.70;46.70
17437;DHT22;73152;52.198;5.422;2024-03-02T10:31:47;20.80;45.60
17437;DHT22;73152;52.198;5.422;2024-03-02T10:34:16;20.70;46.50
17437;DHT22;73152;52.198;5.422;2024-03-02T10:36:45;20.80;45.00
17437;DHT22;73152;52.198;5.422;2024-03-02T10:39:17;20.80;44.90
17437;DHT22;73152;52.198;5.422;2024-03-02T10:41:49;20.70;46.30
17437;DHT22;73152;52.198;5.422;2024-03-02T10:44:22;20.70;45.70
17437;DHT22;73152;52.198;5.422;2024-03-02T10:46:54;20.60;46.60
17437;DHT22;73152;52.198;5.422;2024-03-02T10:49:24;20.60;47.10
17437;DHT22;73152;52.198;5.422;2024-03-02T10:51:55;20.60;47.50
17437;DHT22;73152;52.198;5.422;2024-03-02T10:54:24;20.60;47.70
17437;DHT22;73152;52.198;5.422;2024-03-02T10:56:58;20.60;47.70
17437;DHT22;73152;52.198;5.422;2024-03-02T10:59:32;20.60;47.90
17437;DHT22;73152;52.198;5.422;2024-03-02T11:02:07;20.60;47.80
17437;DHT22;73152;52.198;5.422;2024-03-02T11:04:41;20.60;47.80
17437;DHT22;73152;52.198;5.422;2024-03-02T11:07:11;20.60;47.80
17437;DHT22;73152;52.198;5.422;2024-03-02T11:09:49;20.60;47.40
17437;DHT22;73152;52.198;5.422;2024-03-02T11:12:29;20.60;47.40
17437;DHT22;73152;52.198;5.422;2024-03-02T11:15:00;20.60;47.20
17437;DHT22;73152;52.198;5.422;2024-03-02T11:17:36;20.60;47.10
17437;DHT22;73152;52.198;5.422;2024-03-02T11:20:08;20.60;47.20
17437;DHT22;73152;52.198;5.422;2024-03-02T11:22:38;20.60;47.00
17437;DHT22;73152;52.198;5.422;2024-03-02T11:25:23;20.60;46.90
17437;DHT22;73152;52.198;5.422;2024-03-02T11:28:06;20.60;46.80
17437;DHT22;73152;52.198;5.422;2024-03-02T11:30:51;20.70;44.60
17437;DHT22;73152;52.198;5.422;2024-03-02T11:33:27;20.70;45.20
17437;DHT22;73152;52.198;5.422;2024-03-02T11:35:57;20.80;43.60
17437;DHT22;73152;52.198;5.422;2024-03-02T11:38:31;20.70;44.90
17437;DHT22;73152;52.198;5.422;2024-03-02T11:41:01;20.70;45.90
17437;DHT22;73152;52.198;5.422;2024-03-02T11:43:32;20.60;46.00
17437;DHT22;73152;52.198;5.422;2024-03-02T11:46:04;20.60;46.10
17437;DHT22;73152;52.198;5.422;2024-03-02T11:48:39;20.60;45.30
17437;DHT22;73152;52.198;5.422;2024-03-02T11:51:08;20.60;45.20
17437;DHT22;73152;52.198;5.422;2024-03-02T11:53:41;20.70;43.20
17437;DHT22;73152;52.198;5.422;2024-03-02T11:56:21;20.70;43.20
17437;DHT22;73152;52.198;5.422;2024-03-02T11:58:53;20.80;43.20
17437;DHT22;73152;52.198;5.422;2024-03-02T12:01:23;20.70;43.80
17437;DHT22;73152;52.198;5.422;2024-03-02T12:03:55;20.70;43.00
17437;DHT22;73152;52.198;5.422;2024-03-02T12:06:24;20.80;42.90
17437;DHT22;73152;52.198;5.422;2024-03-02T12:08:53;20.70;42.40
17437;DHT22;73152;52.198;5.422;2024-03-02T12:11:22;20.80;42.50
17437;DHT22;73152;52.198;5.422;2024-03-02T12:13:52;20.90;42.10
17437;DHT22;73152;52.198;5.422;2024-03-02T12:16:24;20.70;42.90
17437;DHT22;73152;52.198;5.422;2024-03-02T12:18:56;20.70;43.50
17437;DHT22;73152;52.198;5.422;2024-03-02T12:21:25;20.70;44.00
17437;DHT22;73152;52.198;5.422;2024-03-02T12:23:54;20.60;44.60
17437;DHT22;73152;52.198;5.422;2024-03-02T12:26:25;20.70;43.60
17437;DHT22;73152;52.198;5.422;2024-03-02T12:28:54;20.70;44.00
17437;DHT22;73152;52.198;5.422;2024-03-02T12:31:23;20.70;44.40
17437;DHT22;73152;52.198;5.422;2024-03-02T12:33:53;20.70;44.40
17437;DHT22;73152;52.198;5.422;2024-03-02T12:36:28;20.70;44.70
17437;DHT22;73152;52.198;5.422;2024-03-02T12:38:57;20.70;45.30
17437;DHT22;73152;52.198;5.422;2024-03-02T12:41:25;20.80;45.00
17437;DHT22;73152;52.198;5.422;2024-03-02T12:43:54;20.80;45.00
17437;DHT22;73152;52.198;5.422;2024-03-02T12:46:23;20.90;45.00
17437;DHT22;73152;52.198;5.422;2024-03-02T12:48:53;20.90;45.20
17437;DHT22;73152;52.198;5.422;2024-03-02T12:51:25;20.90;45.40
17437;DHT22;73152;52.198;5.422;2024-03-02T12:53:55;21.00;45.50
17437;DHT22;73152;52.198;5.422;2024-03-02T12:56:26;21.00;45.60
17437;DHT22;73152;52.198;5.422;2024-03-02T12:58:56;21.10;45.30
17437;DHT22;73152;52.198;5.422;2024-03-02T13:01:25;21.10;45.40
17437;DHT22;73152;52.198;5.422;2024-03-02T13:03:54;21.20;45.60
17437;DHT22;73152;52.198;5.422;2024-03-02T13:06:26;21.20;45.70
17437;DHT22;73152;52.198;5.422;2024-03-02T13:08:56;21.20;45.80
17437;DHT22;73152;52.198;5.422;2024-03-02T13:11:25;21.30;45.90
17437;DHT22;73152;52.198;5.422;2024-03-02T13:13:54;21.30;46.00
17437;DHT22;73152;52.198;5.422;2024-03-02T13:16:23;21.30;46.00
17437;DHT22;73152;52.198;5.422;2024-03-02T13:18:52;21.40;46.00
17437;DHT22;73152;52.198;5.422;2024-03-02T13:21:21;21.50;46.10
17437;DHT22;73152;52.198;5.422;2024-03-02T13:23:52;21.50;46.00
17437;DHT22;73152;52.198;5.422;2024-03-02T13:26:21;21.60;45.90
17437;DHT22;73152;52.198;5.422;2024-03-02T13:28:50;21.60;46.00
17437;DHT22;73152;52.198;5.422;2024-03-02T13:31:19;21.60;45.90
17437;DHT22;73152;52.198;5.422;2024-03-02T13:33:48;21.60;45.80
17437;DHT22;73152;52.198;5.422;2024-03-02T13:36:17;21.70;45.70
17437;DHT22;73152;52.198;5.422;2024-03-02T13:38:46;21.80;45.60
17437;DHT22;73152;52.198;5.422;2024-03-02T13:41:17;21.80;45.60
17437;DHT22;73152;52.198;5.422;2024-03-02T13:50:39;21.80;45.30
17437;DHT22;73152;52.198;5.422;2024-03-02T13:53:12;22.00;45.40
17437;DHT22;73152;52.198;5.422;2024-03-02T13:55:41;22.00;45.20
17437;DHT22;73152;52.198;5.422;2024-03-02T13:58:13;21.90;44.90
17437;DHT22;73152;52.198;5.422;2024-03-02T14:00:42;21.90;45.00
17437;DHT22;73152;52.198;5.422;2024-03-02T14:03:13;21.80;44.90
17437;DHT22;73152;52.198;5.422;2024-03-02T14:05:43;21.80;44.80
17437;DHT22;73152;52.198;5.422;2024-03-02T14:08:14;21.80;44.60
17437;DHT22;73152;52.198;5.422;2024-03-02T14:10:43;21.70;44.70
17437;DHT22;73152;52.198;5.422;2024-03-02T14:16:25;21.60;44.70
17437;DHT22;73152;52.198;5.422;2024-03-02T14:18:54;21.60;44.80
17437;DHT22;73152;52.198;5.422;2024-03-02T14:21:24;21.60;44.70
17437;DHT22;73152;52.198;5.422;2024-03-02T14:23:53;21.60;44.70
17437;DHT22;73152;52.198;5.422;2024-03-02T14:26:24;21.50;44.80
17437;DHT22;73152;52.198;5.422;2024-03-02T14:28:56;21.50;44.90
17437;DHT22;73152;52.198;5.422;2024-03-02T14:31:26;21.50;44.80
17437;DHT22;73152;52.198;5.422;2024-03-02T14:33:56;21.50;45.10
17437;DHT22;73152;52.198;5.422;2024-03-02T14:36:26;21.60;45.20
17437;DHT22;73152;52.198;5.422;2024-03-02T14:38:55;21.60;45.20
17437;DHT22;73152;52.198;5.422;2024-03-02T14:41:24;21.70;44.90
17437;DHT22;73152;52.198;5.422;2024-03-02T14:43:55;21.80;44.70
17437;DHT22;73152;52.198;5.422;2024-03-02T14:46:24;22.00;44.50
17437;DHT22;73152;52.198;5.422;2024-03-02T14:48:53;22.00;44.10
17437;DHT22;73152;52.198;5.422;2024-03-02T14:51:22;22.10;43.70
17437;DHT22;73152;52.198;5.422;2024-03-02T14:53:51;22.10;43.60
17437;DHT22;73152;52.198;5.422;2024-03-02T14:56:20;22.10;43.40
17437;DHT22;73152;52.198;5.422;2024-03-02T15:02:18;22.20;43.40
17437;DHT22;73152;52.198;5.422;2024-03-02T15:04:47;22.10;43.50
17437;DHT22;73152;52.198;5.422;2024-03-02T15:07:16;22.10;44.00
17437;DHT22;73152;52.198;5.422;2024-03-02T15:09:45;22.10;43.60
17437;DHT22;73152;52.198;5.422;2024-03-02T15:12:14;22.10;42.90
17437;DHT22;73152;52.198;5.422;2024-03-02T15:14:43;22.20;42.20
17437;DHT22;73152;52.198;5.422;2024-03-02T15:17:14;22.20;42.60
17437;DHT22;73152;52.198;5.422;2024-03-02T15:19:46;22.20;42.70
17437;DHT22;73152;52.198;5.422;2024-03-02T15:22:15;22.20;42.60
17437;DHT22;73152;52.198;5.422;2024-03-02T15:24:44;22.20;42.80
17437;DHT22;73152;52.198;5.422;2024-03-02T15:27:13;22.20;42.70
17437;DHT22;73152;52.198;5.422;2024-03-02T15:29:42;22.20;42.90
17437;DHT22;73152;52.198;5.422;2024-03-02T15:32:11;22.20;42.90
17437;DHT22;73152;52.198;5.422;2024-03-02T15:34:40;22.20;42.90
17437;DHT22;73152;52.198;5.422;2024-03-02T15:37:14;22.20;43.00
17437;DHT22;73152;52.198;5.422;2024-03-02T15:39:43;22.10;43.20
17437;DHT22;73152;52.198;5.422;2024-03-02T15:42:12;22.10;43.50
17437;DHT22;73152;52.198;5.422;2024-03-02T15:44:41;22.00;43.70
17437;DHT22;73152;52.198;5.422;2024-03-02T15:47:10;21.90;43.80
17437;DHT22;73152;52.198;5.422;2024-03-02T15:49:39;21.80;43.90
17437;DHT22;73152;52.198;5.422;2024-03-02T15:52:11;21.80;44.00
17437;DHT22;73152;52.198;5.422;2024-03-02T15:54:43;21.70;44.20
17437;DHT22;73152;52.198;5.422;2024-03-02T15:57:13;21.70;44.30
17437;DHT22;73152;52.198;5.422;2024-03-02T15:59:42;21.60;44.40
17437;DHT22;73152;52.198;5.422;2024-03-02T16:02:11;21.60;44.40